Time;durP1;ratioP1;P1;durP2;ratioP2;P2;SDS_P1;SDS_P2;PMS_P1;PMS_P2;Temp;Humidity;BMP_temperature;BMP_pressure;BME280_temperature;BME280_humidity;BME280_pressure;Samples;Min_cycle;Max_cycle;Signal;HPM_P1;HPM_P2
2023/09/08 00:01:52;;;;;;;4.90;3.60;;;12.90;99.90;;;;;;5042189;28;20037;-37
2023/09/08 00:04:19;;;;;;;2.67;2.47;;;12.70;99.90;;;;;;5041197;28;20178;-40
2023/09/08 00:06:45;;;;;;;1.80;1.70;;;12.80;99.90;;;;;;5044146;28;20025;-39
2023/09/08 00:09:11;;;;;;;2.13;2.03;;;12.50;99.90;;;;;;5041310;28;20036;-39
2023/09/08 00:11:37;;;;;;;2.63;2.42;;;12.40;99.90;;;;;;5043991;28;20054;-38
2023/09/08 00:14:03;;;;;;;3.10;2.80;;;12.30;99.90;;;;;;5042664;28;20119;-39
2023/09/08 00:16:29;;;;;;;5.10;3.17;;;12.30;99.90;;;;;;5044288;28;20155;-38
2023/09/08 00:18:55;;;;;;;5.32;3.40;;;12.50;99.90;;;;;;5044577;28;20588;-41
2023/09/08 00:21:21;;;;;;;3.35;3.05;;;12.50;99.90;;;;;;5050693;28;20029;-40
2023/09/08 00:23:46;;;;;;;4.00;3.00;;;12.50;99.90;;;;;;5046402;28;20033;-39
2023/09/08 00:26:12;;;;;;;6.22;3.78;;;12.50;99.90;;;;;;5045443;28;20071;-38
2023/09/08 00:28:37;;;;;;;5.10;3.95;;;12.60;99.90;;;;;;5049891;28;20040;-41
2023/09/08 00:31:04;;;;;;;4.63;3.80;;;12.60;99.90;;;;;;5042817;28;20048;-41
2023/09/08 00:33:30;;;;;;;4.80;3.80;;;12.70;99.90;;;;;;5046652;28;20036;-38
2023/09/08 00:35:57;;;;;;;4.25;3.50;;;12.70;99.90;;;;;;5046583;28;20647;-39
2023/09/08 00:38:23;;;;;;;6.00;3.65;;;12.80;99.90;;;;;;5049757;28;20037;-40
2023/09/08 00:40:48;;;;;;;3.88;3.33;;;12.80;99.90;;;;;;5045290;28;20104;-37
2023/09/08 00:43:14;;;;;;;4.05;3.53;;;12.80;99.90;;;;;;5045164;28;20029;-41
2023/09/08 00:45:42;;;;;;;4.32;3.15;;;12.80;99.90;;;;;;5047085;28;20029;-39
2023/09/08 00:48:08;;;;;;;4.28;3.30;;;12.50;99.90;;;;;;5045502;28;20025;-35
2023/09/08 00:50:36;;;;;;;8.27;4.15;;;12.50;99.90;;;;;;5045851;28;20033;-39
2023/09/08 00:53:06;;;;;;;3.73;3.43;;;12.40;99.90;;;;;;5047128;28;20124;-39
2023/09/08 00:55:32;;;;;;;3.80;3.15;;;12.30;99.90;;;;;;5044464;28;20028;-41
2023/09/08 00:57:58;;;;;;;3.67;3.28;;;12.30;99.90;;;;;;5046682;28;20025;-33
2023/09/08 01:00:27;;;;;;;3.95;2.63;;;12.20;99.90;;;;;;5046010;28;20033;-35
2023/09/08 01:02:53;;;;;;;3.13;2.80;;;12.10;99.90;;;;;;5045833;28;20040;-38
2023/09/08 01:05:20;;;;;;;2.42;2.22;;;12.20;99.90;;;;;;5046549;28;20037;-40
2023/09/08 01:07:47;;;;;;;2.60;2.40;;;12.10;99.90;;;;;;5045857;28;20419;-40
2023/09/08 01:10:14;;;;;;;3.97;1.98;;;12.10;99.90;;;;;;5046015;28;20071;-38
2023/09/08 01:21:06;;;;;;;3.28;2.85;;;12.20;99.90;;;;;;4920052;28;19925;-95
2023/09/08 01:23:50;;;;;;;3.38;2.60;;;12.40;99.90;;;;;;4983315;28;20071;-93
2023/09/08 01:26:43;;;;;;;4.70;3.70;;;12.40;99.90;;;;;;4969818;28;20031;-94
2023/09/08 01:29:10;;;;;;;6.82;4.07;;;12.40;99.90;;;;;;4987494;28;20441;-95
2023/09/08 01:31:39;;;;;;;;;;;12.50;99.90;;;;;;4960234;29;20066;-95
2023/09/08 01:34:07;;;;;;;3.92;3.53;;;12.40;99.90;;;;;;4959153;29;19933;-95
2023/09/08 01:36:34;;;;;;;5.13;3.35;;;12.40;99.90;;;;;;4976561;28;20037;-93
2023/09/08 01:39:03;;;;;;;7.00;3.97;;;12.40;99.90;;;;;;4959950;29;20477;-94
2023/09/08 01:41:31;;;;;;;7.68;4.13;;;12.40;99.90;;;;;;4961246;28;20031;-93
2023/09/08 01:43:57;;;;;;;3.97;3.50;;;12.40;99.90;;;;;;4979423;28;20707;-94
2023/09/08 01:46:23;;;;;;;4.25;3.10;;;12.40;99.90;;;;;;4981195;28;20030;-93
2023/09/08 01:48:49;;;;;;;2.78;2.40;;;12.30;99.90;;;;;;4980188;28;20023;-94
2023/09/08 01:51:15;;;;;;;2.30;2.05;;;12.30;99.90;;;;;;4985591;28;20034;-94
2023/09/08 01:53:40;;;;;;;2.65;2.28;;;12.20;99.90;;;;;;4963851;28;20038;-95
2023/09/08 01:56:06;;;;;;;3.33;2.45;;;12.20;99.90;;;;;;4962052;28;20069;-95
2023/09/08 01:58:33;;;;;;;4.63;3.10;;;12.20;99.90;;;;;;4963137;28;20038;-93
2023/09/08 02:01:05;;;;;;;3.75;3.00;;;12.20;99.90;;;;;;4960881;28;20027;-93
2023/09/08 02:03:31;;;;;;;3.65;2.70;;;12.10;99.90;;;;;;4977326;28;20027;-92
2023/09/08 02:05:57;;;;;;;4.22;3.10;;;12.10;99.90;;;;;;4977017;28;20370;-94
2023/09/08 02:08:23;;;;;;;4.78;2.90;;;12.10;99.90;;;;;;4978380;28;20041;-93
2023/09/08 02:10:48;;;;;;;4.35;3.65;;;12.10;99.90;;;;;;4964068;28;20058;-93
2023/09/08 02:13:14;;;;;;;5.78;3.60;;;12.10;99.90;;;;;;4963319;28;20077;-93
2023/09/08 02:15:40;;;;;;;4.68;3.20;;;12.10;99.90;;;;;;4963873;28;20030;-94
2023/09/08 02:18:07;;;;;;;4.18;3.33;;;12.00;99.90;;;;;;4976914;28;20054;-94
2023/09/08 02:20:33;;;;;;;7.05;4.13;;;12.10;99.90;;;;;;4978428;28;20411;-94
2023/09/08 02:23:04;;;;;;;7.88;4.47;;;12.10;99.90;;;;;;4959476;28;20089;-94
2023/09/08 02:25:30;;;;;;;7.55;5.00;;;12.00;99.90;;;;;;4969734;28;20045;-94
2023/09/08 02:27:56;;;;;;;6.55;4.60;;;11.90;99.90;;;;;;4960354;28;20034;-94
2023/09/08 02:30:21;;;;;;;8.18;5.15;;;11.80;99.90;;;;;;4973098;28;20035;-95
2023/09/08 02:32:47;;;;;;;5.85;4.80;;;11.70;99.90;;;;;;4975692;28;20059;-93
2023/09/08 02:35:13;;;;;;;5.75;4.95;;;11.60;99.90;;;;;;4976802;28;20038;-94
2023/09/08 02:37:39;;;;;;;2.20;2.10;;;11.50;99.90;;;;;;4963744;28;20050;-93
2023/09/08 02:40:06;;;;;;;1.98;1.80;;;11.10;99.90;;;;;;4954892;28;20026;-95
2023/09/08 02:42:32;;;;;;;2.15;1.80;;;10.80;99.90;;;;;;4979128;28;20539;-93
2023/09/08 02:44:58;;;;;;;2.28;2.17;;;10.70;99.90;;;;;;4980077;28;20106;-93
2023/09/08 02:47:23;;;;;;;2.30;1.90;;;10.80;99.90;;;;;;4981332;28;20111;-93
2023/09/08 02:49:49;;;;;;;2.78;2.53;;;10.90;99.90;;;;;;4978395;28;20058;-95
2023/09/08 02:52:15;;;;;;;3.95;2.60;;;11.00;99.90;;;;;;4958540;28;20042;-94
2023/09/08 02:54:41;;;;;;;3.00;2.70;;;11.10;99.90;;;;;;4960852;28;20090;-95
2023/09/08 02:57:06;;;;;;;4.72;3.40;;;11.10;99.90;;;;;;4973735;28;20035;-94
2023/09/08 02:59:32;;;;;;;5.30;3.47;;;11.10;99.90;;;;;;4956341;28;20063;-94
2023/09/08 03:01:59;;;;;;;4.10;3.30;;;11.20;99.90;;;;;;4976663;28;20030;-94
2023/09/08 03:04:28;;;;;;;3.90;3.20;;;11.20;99.90;;;;;;4958721;28;20158;-91
2023/09/08 03:06:54;;;;;;;4.93;3.85;;;11.20;99.90;;;;;;4980909;28;20034;-94
2023/09/08 03:09:19;;;;;;;4.82;3.92;;;11.30;99.90;;;;;;4975676;28;20034;-94
2023/09/08 03:11:45;;;;;;;4.15;2.47;;;11.10;99.90;;;;;;4963086;28;20023;-93
2023/09/08 03:14:11;;;;;;;4.93;2.95;;;10.90;99.90;;;;;;4962095;28;20031;-94
2023/09/08 03:16:36;;;;;;;3.65;3.00;;;10.90;99.90;;;;;;4962725;28;20023;-94
2023/09/08 03:19:02;;;;;;;4.80;2.97;;;10.80;99.90;;;;;;4961094;28;20050;-93
2023/09/08 03:21:28;;;;;;;3.42;2.75;;;10.70;99.90;;;;;;4958682;28;20032;-94
2023/09/08 03:23:54;;;;;;;3.03;2.70;;;10.70;99.90;;;;;;4964528;28;20031;-94
2023/09/08 03:26:19;;;;;;;5.13;2.90;;;10.80;99.90;;;;;;4960196;28;20030;-94
2023/09/08 03:28:45;;;;;;;5.35;2.90;;;10.90;99.90;;;;;;4959386;28;20031;-94
2023/09/08 03:31:11;;;;;;;4.15;2.88;;;10.90;99.90;;;;;;4960982;28;20042;-94
2023/09/08 03:33:37;;;;;;;2.95;2.65;;;10.90;99.90;;;;;;4968526;28;20059;-94
2023/09/08 03:36:03;;;;;;;2.92;2.53;;;11.00;99.90;;;;;;4982272;28;20150;-94
2023/09/08 03:38:28;;;;;;;2.95;2.45;;;11.00;99.90;;;;;;4983813;28;20066;-94
2023/09/08 03:40:54;;;;;;;4.72;2.53;;;11.00;99.90;;;;;;4972782;28;20058;-93
2023/09/08 03:43:20;;;;;;;3.33;2.70;;;10.80;99.90;;;;;;4961479;28;20023;-95
2023/09/08 03:45:47;;;;;;;3.47;2.70;;;10.70;99.90;;;;;;4957833;28;20019;-94
2023/09/08 03:48:18;;;;;;;3.80;2.97;;;10.60;99.90;;;;;;4963909;28;20027;-96
2023/09/08 03:50:47;;;;;;;5.53;2.90;;;10.60;99.90;;;;;;4971672;28;20043;-96
2023/09/08 03:53:22;;;;;;;5.50;3.63;;;10.60;99.90;;;;;;4987311;28;20030;-95
2023/09/08 03:55:54;;;;;;;4.30;2.80;;;10.60;99.90;;;;;;4959191;28;20030;-95
2023/09/08 03:58:23;;;;;;;3.78;3.15;;;10.60;99.90;;;;;;4989393;28;20086;-95
2023/09/08 04:00:52;;;;;;;3.63;2.75;;;10.70;99.90;;;;;;4973443;28;20057;-94
2023/09/08 04:03:21;;;;;;;4.38;3.42;;;10.70;99.90;;;;;;4967858;28;20026;-93
2023/09/08 04:05:57;;;;;;;6.40;3.85;;;10.60;99.90;;;;;;4983947;28;20057;-94
2023/09/08 04:08:24;;;;;;;6.93;3.53;;;10.60;99.90;;;;;;4981982;28;20038;-94
2023/09/08 04:11:03;;;;;;;4.95;3.17;;;10.50;99.90;;;;;;4970604;28;20086;-95
2023/09/08 04:13:32;;;;;;;7.93;3.58;;;10.40;99.90;;;;;;4974288;28;20035;-95
2023/09/08 04:15:59;;;;;;;5.10;3.15;;;10.30;99.90;;;;;;4989577;28;20065;-93
2023/09/08 04:18:38;;;;;;;3.45;3.03;;;10.40;99.90;;;;;;4992549;28;20043;-94
2023/09/08 04:21:25;;;;;;;3.50;3.20;;;10.30;99.90;;;;;;4986004;28;20031;-93
2023/09/08 04:23:57;;;;;;;3.17;2.80;;;10.40;99.90;;;;;;4995843;28;20031;-95
2023/09/08 04:26:30;;;;;;;3.28;2.92;;;10.30;99.90;;;;;;4973894;28;20030;-93
2023/09/08 04:29:02;;;;;;;2.45;2.20;;;10.40;99.90;;;;;;5022809;23;20092;-32
2023/09/08 04:31:27;;;;;;;3.97;2.97;;;10.40;99.90;;;;;;5012620;28;20404;-31
2023/09/08 04:33:54;;;;;;;2.80;2.53;;;10.50;99.90;;;;;;5018275;28;20036;-32
2023/09/08 04:36:19;;;;;;;3.45;2.70;;;10.50;99.90;;;;;;5013379;28;20114;-29
2023/09/08 04:38:45;;;;;;;3.60;2.67;;;10.50;99.90;;;;;;5014088;28;20495;-29
2023/09/08 04:41:11;;;;;;;4.30;2.70;;;10.60;99.90;;;;;;5013701;28;20030;-29
2023/09/08 04:43:36;;;;;;;3.78;2.83;;;10.60;99.90;;;;;;5020567;28;20144;-31
2023/09/08 04:46:03;;;;;;;5.38;3.30;;;10.60;99.90;;;;;;5018170;28;20491;-34
2023/09/08 04:48:29;;;;;;;4.47;3.65;;;10.70;99.90;;;;;;5021226;28;20530;-29
2023/09/08 04:50:55;;;;;;;4.45;3.67;;;10.60;99.90;;;;;;5012420;28;20061;-33
2023/09/08 04:53:20;;;;;;;5.22;3.67;;;10.60;99.90;;;;;;5019923;28;20021;-30
2023/09/08 04:55:46;;;;;;;6.38;3.72;;;10.60;99.90;;;;;;5009279;28;20381;-30
2023/09/08 04:58:11;;;;;;;10.18;3.97;;;10.60;99.90;;;;;;5016478;28;20041;-33
2023/09/08 05:00:40;;;;;;;9.35;4.22;;;10.60;99.90;;;;;;5015394;28;20053;-32
2023/09/08 05:03:06;;;;;;;;;;;10.60;99.90;;;;;;5015161;28;20022;-30
2023/09/08 05:05:31;;;;;;;13.50;4.97;;;10.70;99.90;;;;;;5019724;28;20364;-31
2023/09/08 05:07:57;;;;;;;16.75;5.47;;;10.70;99.90;;;;;;5015397;28;20496;-36
2023/09/08 05:10:23;;;;;;;16.38;4.47;;;10.70;99.90;;;;;;5014054;28;20376;-30
2023/09/08 05:12:49;;;;;;;15.95;4.47;;;10.60;99.90;;;;;;5018802;28;20053;-41
2023/09/08 05:15:16;;;;;;;13.73;3.30;;;10.40;99.90;;;;;;5020561;28;20058;-41
2023/09/08 05:17:42;;;;;;;10.57;3.60;;;10.30;99.90;;;;;;5013162;28;20861;-41
2023/09/08 05:20:08;;;;;;;8.95;3.75;;;10.40;99.90;;;;;;5013362;28;20083;-35
2023/09/08 05:22:34;;;;;;;11.82;3.65;;;10.50;99.90;;;;;;5010128;28;20018;-41
2023/09/08 05:25:00;;;;;;;13.65;4.45;;;10.60;99.90;;;;;;5008583;28;20041;-40
2023/09/08 05:27:26;;;;;;;15.75;4.47;;;10.60;99.90;;;;;;5014646;28;20400;-42
2023/09/08 05:29:51;;;;;;;9.82;3.75;;;10.80;99.90;;;;;;5006075;28;20078;-38
2023/09/08 05:32:17;;;;;;;7.80;3.55;;;10.80;99.90;;;;;;5002098;28;20054;-38
2023/09/08 05:34:42;;;;;;;12.50;4.18;;;10.90;99.90;;;;;;5015210;28;20025;-31
2023/09/08 05:37:08;;;;;;;5.57;3.75;;;11.00;99.90;;;;;;5009576;28;20030;-31
2023/09/08 05:39:34;;;;;;;5.28;3.67;;;10.90;99.90;;;;;;5015521;28;20115;-31
2023/09/08 05:42:00;;;;;;;3.80;2.80;;;10.90;99.90;;;;;;5015359;28;20053;-33
2023/09/08 05:44:25;;;;;;;7.95;3.65;;;10.80;99.90;;;;;;5010447;28;20030;-32
2023/09/08 05:46:51;;;;;;;6.80;3.38;;;10.90;99.90;;;;;;5009878;28;20038;-31
2023/09/08 05:49:17;;;;;;;9.05;3.75;;;11.00;99.90;;;;;;5014708;28;20053;-31
2023/09/08 05:51:44;;;;;;;5.15;3.47;;;11.10;99.90;;;;;;5011616;28;20068;-32
2023/09/08 05:54:10;;;;;;;8.05;3.65;;;11.10;99.90;;;;;;5013756;28;20462;-33
2023/09/08 05:56:37;;;;;;;6.35;4.05;;;11.20;99.90;;;;;;5013305;28;20030;-31
2023/09/08 05:59:02;;;;;;;4.95;3.58;;;11.40;99.90;;;;;;4997918;28;20029;-31
2023/09/08 06:01:29;;;;;;;7.07;3.60;;;11.50;99.90;;;;;;5013218;28;20096;-33
2023/09/08 06:03:54;;;;;;;5.60;3.80;;;11.60;99.90;;;;;;5007963;28;20108;-34
2023/09/08 06:06:21;;;;;;;8.10;4.22;;;11.80;99.90;;;;;;5009049;28;20105;-32
2023/09/08 06:08:47;;;;;;;5.43;3.65;;;11.90;99.90;;;;;;5003113;28;20096;-34
2023/09/08 06:11:12;;;;;;;6.72;4.30;;;12.00;99.90;;;;;;5018306;28;20037;-31
2023/09/08 06:13:38;;;;;;;9.70;4.75;;;12.10;99.90;;;;;;5010807;28;20107;-33
2023/09/08 06:16:03;;;;;;;12.02;4.43;;;12.10;99.90;;;;;;5008968;28;20052;-31
2023/09/08 06:18:33;;;;;;;7.07;5.05;;;12.20;99.90;;;;;;5014197;28;20091;-32
2023/09/08 06:20:59;;;;;;;7.38;4.82;;;12.30;99.90;;;;;;5012604;28;20400;-36
2023/09/08 06:23:25;;;;;;;7.95;5.18;;;12.30;99.90;;;;;;5018681;28;20029;-32
2023/09/08 06:25:50;;;;;;;8.40;5.38;;;12.50;99.90;;;;;;5016147;28;20121;-31
2023/09/08 06:28:16;;;;;;;6.88;5.18;;;12.60;99.90;;;;;;5008902;28;20452;-32
2023/09/08 06:30:41;;;;;;;10.07;5.43;;;12.70;99.90;;;;;;5011999;28;20172;-31
2023/09/08 06:33:10;;;;;;;12.57;5.38;;;13.00;99.90;;;;;;5009875;28;20460;-30
2023/09/08 06:35:36;;;;;;;9.57;6.15;;;13.00;99.90;;;;;;5010369;28;20030;-31
2023/09/08 06:38:01;;;;;;;12.25;6.68;;;13.10;99.90;;;;;;5008900;28;20064;-30
2023/09/08 06:40:29;;;;;;;13.52;6.43;;;13.10;99.90;;;;;;5009835;28;20121;-33
2023/09/08 06:42:55;;;;;;;8.30;6.32;;;13.10;99.90;;;;;;5008156;28;20112;-30
2023/09/08 06:45:21;;;;;;;8.27;5.93;;;13.30;99.90;;;;;;5011492;28;20080;-30
2023/09/08 06:47:46;;;;;;;8.93;6.30;;;13.60;99.90;;;;;;5013754;28;20069;-30
2023/09/08 06:50:12;;;;;;;8.77;6.82;;;13.80;99.90;;;;;;5010515;28;20014;-30
2023/09/08 06:52:37;;;;;;;11.45;7.35;;;13.90;99.90;;;;;;5016385;28;20045;-30
2023/09/08 06:55:04;;;;;;;12.02;7.40;;;14.00;99.90;;;;;;5002178;28;20033;-34
2023/09/08 06:57:30;;;;;;;12.73;8.43;;;14.10;99.90;;;;;;5003208;28;20021;-31
2023/09/08 06:59:56;;;;;;;13.95;8.20;;;14.30;99.90;;;;;;5012669;28;20091;-33
2023/09/08 07:02:21;;;;;;;11.48;7.97;;;14.40;99.90;;;;;;5008864;28;20038;-33
2023/09/08 07:04:47;;;;;;;13.27;8.68;;;14.60;99.90;;;;;;5000259;28;20037;-34
2023/09/08 07:07:12;;;;;;;14.82;9.43;;;14.70;99.90;;;;;;4998994;28;20058;-33
2023/09/08 07:09:38;;;;;;;13.15;8.82;;;14.90;99.90;;;;;;5001423;28;20030;-32
2023/09/08 07:12:04;;;;;;;10.95;9.23;;;15.00;99.90;;;;;;4997794;28;20026;-38
2023/09/08 07:14:31;;;;;;;12.00;8.23;;;15.20;99.90;;;;;;4999659;28;20032;-30
2023/09/08 07:16:56;;;;;;;12.30;8.90;;;15.30;99.90;;;;;;4998990;28;20072;-34
2023/09/08 07:19:22;;;;;;;14.45;8.98;;;15.50;99.90;;;;;;5000836;28;20779;-35
2023/09/08 07:21:47;;;;;;;12.63;8.52;;;15.60;99.90;;;;;;5004404;28;20033;-34
2023/09/08 07:24:13;;;;;;;11.80;8.15;;;15.80;99.90;;;;;;5000895;28;20151;-32
2023/09/08 07:26:38;;;;;;;12.80;8.85;;;16.00;99.90;;;;;;4997257;28;20041;-32
2023/09/08 07:29:04;;;;;;;13.95;9.57;;;16.10;99.90;;;;;;4996931;28;20044;-30
2023/09/08 07:31:30;;;;;;;13.88;8.70;;;16.40;99.90;;;;;;4997651;28;20046;-32
2023/09/08 07:33:55;;;;;;;13.30;9.50;;;16.60;99.90;;;;;;4999981;28;20034;-36
2023/09/08 07:36:21;;;;;;;15.05;9.02;;;16.70;99.90;;;;;;4998842;28;20038;-30
2023/09/08 07:38:46;;;;;;;13.77;10.40;;;16.80;99.90;;;;;;4999318;28;20036;-36
2023/09/08 07:41:12;;;;;;;12.93;9.05;;;17.00;99.90;;;;;;4998776;28;20745;-31
2023/09/08 07:43:40;;;;;;;11.95;8.80;;;17.10;99.90;;;;;;4999758;28;20492;-40
2023/09/08 07:46:06;;;;;;;12.27;8.85;;;17.20;99.90;;;;;;5001010;28;20543;-41
2023/09/08 07:48:32;;;;;;;14.15;9.43;;;17.40;99.90;;;;;;5001558;28;20030;-37
2023/09/08 07:50:59;;;;;;;13.80;9.77;;;17.50;99.90;;;;;;4999088;28;20038;-35
2023/09/08 07:53:28;;;;;;;11.10;8.87;;;17.70;99.90;;;;;;4999279;28;20033;-41
2023/09/08 07:55:53;;;;;;;13.50;9.10;;;17.80;99.90;;;;;;4997269;28;20795;-37
2023/09/08 07:58:19;;;;;;;14.63;9.60;;;17.90;99.90;;;;;;4988567;28;20109;-41
2023/09/08 08:00:45;;;;;;;16.38;9.02;;;18.10;99.90;;;;;;5005542;28;20196;-38
2023/09/08 08:03:10;;;;;;;14.77;10.07;;;18.20;99.90;;;;;;5004806;28;20428;-34
2023/09/08 08:05:36;;;;;;;12.80;8.70;;;18.40;99.90;;;;;;5004160;28;20112;-36
2023/09/08 08:08:02;;;;;;;15.02;9.02;;;18.50;99.90;;;;;;4998394;28;20056;-39
2023/09/08 08:10:28;;;;;;;14.50;9.13;;;18.60;99.90;;;;;;4994754;28;20034;-33
2023/09/08 08:12:53;;;;;;;12.23;9.50;;;18.80;99.90;;;;;;4993488;28;20081;-41
2023/09/08 08:15:23;;;;;;;14.65;8.55;;;18.90;99.90;;;;;;5006478;28;20040;-39
2023/09/08 08:17:48;;;;;;;13.38;9.45;;;19.10;99.90;;;;;;5001275;28;20026;-41
2023/09/08 08:20:17;;;;;;;13.40;9.45;;;19.10;99.90;;;;;;4999775;28;20036;-42
2023/09/08 08:22:46;;;;;;;13.90;8.93;;;19.40;99.90;;;;;;4999869;28;20029;-38
2023/09/08 08:25:15;;;;;;;13.98;9.40;;;19.50;99.90;;;;;;5004145;28;20030;-40
2023/09/08 08:27:41;;;;;;;11.07;8.80;;;19.50;99.90;;;;;;5005718;28;20049;-42
2023/09/08 08:30:07;;;;;;;13.50;9.52;;;19.70;99.90;;;;;;5007978;28;20046;-41
2023/09/08 08:32:34;;;;;;;11.55;8.88;;;19.70;99.90;;;;;;4999153;28;20029;-42
2023/09/08 08:34:59;;;;;;;13.52;9.27;;;19.70;99.90;;;;;;4986025;28;20044;-33
2023/09/08 08:37:25;;;;;;;13.00;8.70;;;20.00;99.90;;;;;;4995361;28;20026;-40
2023/09/08 08:39:51;;;;;;;10.85;8.77;;;20.00;99.90;;;;;;4994051;28;20092;-41
2023/09/08 08:42:16;;;;;;;12.55;9.30;;;20.10;99.90;;;;;;5004038;28;20068;-42
2023/09/08 08:44:43;;;;;;;11.05;8.90;;;20.30;99.90;;;;;;5003342;28;20057;-38
2023/09/08 08:47:10;;;;;;;13.73;9.20;;;20.40;99.90;;;;;;5000054;28;20096;-39
2023/09/08 08:49:38;;;;;;;12.40;8.85;;;20.50;99.90;;;;;;4999591;28;20484;-41
2023/09/08 08:52:07;;;;;;;12.63;9.02;;;20.60;99.90;;;;;;4990964;28;20439;-36
2023/09/08 08:54:39;;;;;;;14.00;9.38;;;20.70;99.90;;;;;;5001700;28;20030;-33
2023/09/08 08:57:06;;;;;;;13.73;9.25;;;20.70;99.90;;;;;;5000211;28;20396;-34
2023/09/08 08:59:32;;;;;;;14.83;9.40;;;20.90;99.90;;;;;;5013402;28;20623;-32
2023/09/08 09:01:59;;;;;;;13.45;9.82;;;20.80;99.90;;;;;;5016158;28;20109;-36
2023/09/08 09:04:25;;;;;;;14.55;9.43;;;21.00;99.90;;;;;;5009776;28;20034;-37
2023/09/08 09:06:52;;;;;;;11.93;8.85;;;21.10;99.90;;;;;;5004575;28;20042;-41
2023/09/08 09:09:18;;;;;;;14.20;9.93;;;21.00;99.90;;;;;;5002146;28;20041;-39
2023/09/08 09:11:44;;;;;;;13.52;9.25;;;21.10;99.90;;;;;;5009735;28;20072;-38
2023/09/08 09:14:09;;;;;;;13.80;9.13;;;21.20;99.90;;;;;;5007333;28;20022;-40
2023/09/08 09:16:43;;;;;;;12.30;8.85;;;21.30;99.90;;;;;;5000960;28;20034;-40
2023/09/08 09:19:08;;;;;;;11.80;8.15;;;21.30;99.90;;;;;;5003438;28;20026;-39
2023/09/08 09:21:47;;;;;;;14.68;8.88;;;21.50;99.90;;;;;;5004271;28;20060;-41
2023/09/08 09:24:17;;;;;;;12.63;8.88;;;21.60;99.90;;;;;;5010200;28;20116;-39
2023/09/08 09:26:43;;;;;;;14.30;8.90;;;21.70;99.90;;;;;;5003781;28;20165;-39
2023/09/08 09:29:13;;;;;;;9.77;8.55;;;21.70;99.90;;;;;;5000244;28;20038;-36
2023/09/08 09:32:04;;;;;;;10.35;8.32;;;21.70;99.90;;;;;;5000450;28;20068;-42
2023/09/08 09:34:29;;;;;;;12.35;8.38;;;21.90;99.90;;;;;;4985341;28;20042;-35
2023/09/08 09:36:55;;;;;;;10.55;7.97;;;21.90;99.90;;;;;;5005233;28;20034;-33
2023/09/08 09:39:23;;;;;;;12.27;8.05;;;22.00;99.90;;;;;;5001277;28;20041;-37
2023/09/08 09:41:52;;;;;;;;;;;22.10;99.90;;;;;;5006713;28;20072;-40
2023/09/08 09:44:18;;;;;;;11.30;8.15;;;22.20;99.90;;;;;;5003997;28;19971;-39
2023/09/08 09:46:47;;;;;;;10.88;8.38;;;22.20;99.90;;;;;;5000106;28;20034;-41
2023/09/08 09:49:14;;;;;;;12.65;8.07;;;22.30;99.90;;;;;;5004814;28;20048;-34
2023/09/08 09:51:42;;;;;;;9.85;8.20;;;22.50;99.90;;;;;;5004350;28;20040;-41
2023/09/08 09:54:08;;;;;;;11.52;8.38;;;22.60;99.90;;;;;;5003420;28;20026;-39
2023/09/08 09:56:36;;;;;;;11.10;8.20;;;22.70;99.90;;;;;;5009584;28;20036;-42
2023/09/08 09:59:03;;;;;;;10.82;7.60;;;22.70;99.90;;;;;;4999534;28;20037;-39
2023/09/08 10:01:29;;;;;;;17.33;10.63;;;22.80;99.90;;;;;;4984487;28;20046;-39
2023/09/08 10:03:55;;;;;;;10.07;7.93;;;22.90;99.90;;;;;;5006574;28;20026;-31
2023/09/08 10:06:22;;;;;;;8.80;7.82;;;23.10;99.90;;;;;;5004458;28;20160;-31
2023/09/08 10:08:48;;;;;;;9.32;7.30;;;23.10;99.90;;;;;;5005396;28;20068;-33
2023/09/08 10:11:21;;;;;;;10.20;7.60;;;22.90;99.90;;;;;;5003215;28;20026;-30
2023/09/08 10:13:49;;;;;;;9.65;6.80;;;23.00;99.90;;;;;;5004115;28;20080;-40
2023/09/08 10:16:19;;;;;;;11.75;8.77;;;23.30;99.90;;;;;;5001947;28;20032;-41
2023/09/08 10:18:47;;;;;;;10.35;7.82;;;23.40;99.90;;;;;;5000296;28;20026;-42
2023/09/08 10:21:14;;;;;;;10.73;7.30;;;23.60;99.90;;;;;;5002680;28;20030;-42
2023/09/08 10:23:43;;;;;;;8.63;7.15;;;23.50;99.90;;;;;;5011375;28;20042;-39
2023/09/08 10:26:11;;;;;;;11.55;6.95;;;23.70;99.90;;;;;;4987414;28;20033;-37
2023/09/08 10:28:37;;;;;;;9.18;6.70;;;23.80;99.90;;;;;;5003330;28;20033;-40
2023/09/08 10:31:04;;;;;;;7.47;6.50;;;24.00;99.90;;;;;;5001426;28;20067;-41
2023/09/08 10:33:31;;;;;;;12.05;6.72;;;24.00;99.90;;;;;;5002821;28;20476;-40
2023/09/08 10:35:58;;;;;;;8.13;6.00;;;24.00;99.90;;;;;;5005327;28;20042;-35
2023/09/08 10:38:33;;;;;;;7.43;5.65;;;24.10;99.90;;;;;;5008893;28;20396;-42
2023/09/08 10:41:25;;;;;;;6.57;5.38;;;24.00;99.90;;;;;;5010025;28;20439;-35
2023/09/08 10:44:00;;;;;;;6.95;5.38;;;24.50;99.90;;;;;;5010307;28;20490;-42
2023/09/08 10:46:31;;;;;;;6.45;4.63;;;24.70;99.90;;;;;;5017022;28;20033;-39
2023/09/08 10:49:06;;;;;;;6.32;5.38;;;24.90;99.90;;;;;;4993709;28;20108;-38
2023/09/08 10:51:33;;;;;;;7.47;5.85;;;25.10;99.90;;;;;;5008810;28;20040;-34
2023/09/08 10:53:58;;;;;;;8.10;6.57;;;25.00;99.90;;;;;;5010753;28;20025;-36
2023/09/08 10:56:54;;;;;;;9.00;6.60;;;24.60;99.90;;;;;;5010885;28;20036;-41
2023/09/08 10:59:21;;;;;;;7.78;6.45;;;24.40;99.90;;;;;;5008008;28;20022;-43
2023/09/08 11:01:47;;;;;;;6.73;6.03;;;24.20;99.90;;;;;;5006661;28;20026;-38
2023/09/08 11:04:14;;;;;;;8.13;5.68;;;24.40;99.90;;;;;;5017288;28;20032;-38
2023/09/08 11:06:39;;;;;;;7.20;5.68;;;24.40;99.90;;;;;;5006667;28;20045;-39
2023/09/08 11:09:08;;;;;;;8.13;6.13;;;24.50;99.90;;;;;;5009445;28;20022;-42
2023/09/08 11:11:36;;;;;;;9.30;6.70;;;24.40;99.90;;;;;;5013755;28;20052;-40
2023/09/08 11:14:02;;;;;;;9.63;6.90;;;24.50;99.90;;;;;;5006546;28;20037;-34
2023/09/08 11:16:31;;;;;;;8.65;6.43;;;24.50;99.90;;;;;;5012887;28;20083;-31
2023/09/08 11:18:57;;;;;;;8.30;6.20;;;24.70;99.90;;;;;;5005245;28;20053;-31
2023/09/08 11:21:22;;;;;;;7.05;6.07;;;24.70;99.90;;;;;;5009112;28;20456;-33
2023/09/08 11:23:48;;;;;;;6.28;5.40;;;24.70;99.90;;;;;;5010154;28;20029;-34
2023/09/08 11:26:14;;;;;;;10.82;6.60;;;24.80;99.90;;;;;;5003065;28;20036;-39
2023/09/08 11:28:41;;;;;;;7.40;5.55;;;24.90;99.90;;;;;;5007146;28;20045;-38
2023/09/08 11:31:10;;;;;;;11.02;6.43;;;24.90;99.90;;;;;;4995378;28;20053;-39
2023/09/08 11:33:39;;;;;;;7.85;6.05;;;25.10;99.90;;;;;;5015011;28;20030;-39
2023/09/08 11:36:15;;;;;;;10.27;6.32;;;25.10;99.90;;;;;;5009862;28;20100;-39
2023/09/08 11:38:44;;;;;;;7.78;6.20;;;25.40;99.90;;;;;;5007460;28;20696;-40
2023/09/08 11:41:10;;;;;;;6.10;5.32;;;25.30;99.90;;;;;;5008402;28;20026;-40
2023/09/08 11:43:36;;;;;;;6.50;5.90;;;25.30;99.90;;;;;;5008026;28;20052;-39
2023/09/08 11:46:02;;;;;;;6.32;5.65;;;25.30;99.90;;;;;;5005874;28;20033;-35
2023/09/08 11:48:28;;;;;;;8.30;6.05;;;25.40;99.90;;;;;;5007365;28;20477;-37
2023/09/08 11:50:54;;;;;;;9.25;6.20;;;25.30;99.90;;;;;;5008365;28;20026;-40
2023/09/08 11:53:21;;;;;;;9.88;6.35;;;25.20;99.90;;;;;;5002270;28;20129;-39
2023/09/08 11:55:47;;;;;;;8.70;6.28;;;25.30;99.90;;;;;;4997748;28;20099;-40
2023/09/08 11:58:13;;;;;;;8.95;6.45;;;25.40;99.90;;;;;;4997149;28;20034;-39
2023/09/08 12:00:40;;;;;;;9.18;6.20;;;25.30;99.90;;;;;;4995179;28;20040;-37
2023/09/08 12:03:15;;;;;;;6.53;5.75;;;25.20;99.90;;;;;;4996174;28;20022;-35
2023/09/08 12:05:42;;;;;;;7.65;6.18;;;25.10;99.90;;;;;;5000602;28;20088;-40
2023/09/08 12:08:08;;;;;;;6.63;5.75;;;25.20;99.90;;;;;;5003450;28;20033;-40
2023/09/08 12:10:42;;;;;;;8.10;6.30;;;25.20;99.90;;;;;;4988937;28;20034;-40
2023/09/08 12:13:09;;;;;;;6.57;5.60;;;25.20;99.90;;;;;;5007325;28;20025;-40
2023/09/08 12:15:39;;;;;;;6.82;5.95;;;25.40;99.90;;;;;;5010716;28;20485;-40
2023/09/08 12:18:08;;;;;;;6.78;6.07;;;25.60;99.90;;;;;;5007734;28;20428;-39
2023/09/08 12:20:35;;;;;;;8.10;5.57;;;25.50;99.90;;;;;;5013573;28;20026;-40
2023/09/08 12:23:03;;;;;;;8.43;5.97;;;25.50;99.90;;;;;;5010528;28;20037;-31
2023/09/08 12:25:31;;;;;;;7.75;6.20;;;25.50;99.90;;;;;;4999863;28;20088;-33
2023/09/08 12:27:57;;;;;;;6.88;6.18;;;25.80;99.90;;;;;;5004095;28;20452;-32
2023/09/08 12:30:32;;;;;;;9.93;6.22;;;25.80;99.90;;;;;;5011085;28;20087;-31
2023/09/08 12:33:00;;;;;;;6.88;5.38;;;25.90;99.90;;;;;;5005487;28;20032;-35
2023/09/08 12:35:26;;;;;;;6.97;6.03;;;25.80;99.90;;;;;;5014230;28;20031;-32
2023/09/08 12:38:05;;;;;;;9.70;6.00;;;25.80;99.90;;;;;;5008234;28;20390;-33
2023/09/08 12:40:34;;;;;;;7.20;5.53;;;25.70;99.90;;;;;;5016439;28;20041;-35
2023/09/08 12:43:00;;;;;;;7.22;5.57;;;25.80;99.90;;;;;;5002150;28;20120;-32
2023/09/08 12:45:27;;;;;;;6.47;5.85;;;25.80;99.90;;;;;;5008228;28;20097;-37
2023/09/08 12:47:54;;;;;;;7.63;6.07;;;25.80;99.90;;;;;;5012558;28;20033;-32
2023/09/08 12:50:21;;;;;;;10.02;6.03;;;25.80;99.90;;;;;;5005339;28;20160;-31
2023/09/08 12:52:46;;;;;;;6.15;5.53;;;25.90;99.90;;;;;;5000129;28;20034;-32